createdAt,value
2023-02-18T00:00:17.366Z,16.38
2023-02-18T00:00:50.994Z,15.63
2023-02-18T00:01:25.985Z,16.00
2023-02-18T00:02:00.271Z,16.45
2023-02-18T00:02:34.939Z,16.08
2023-02-18T00:03:08.593Z,16.05
2023-02-18T00:03:43.140Z,15.68
2023-02-18T00:04:17.351Z,16.42
2023-02-18T00:04:51.998Z,15.60
2023-02-18T00:05:25.585Z,16.92
2023-02-18T00:06:00.693Z,16.58
2023-02-18T00:06:36.353Z,16.70
2023-02-18T00:07:11.061Z,16.20
2023-02-18T00:07:45.774Z,15.77
2023-02-18T00:08:19.745Z,16.17
2023-02-18T00:08:54.821Z,15.60
2023-02-18T00:09:29.489Z,16.45
2023-02-18T00:10:02.738Z,15.77
2023-02-18T00:10:37.412Z,16.65
2023-02-18T00:11:13.471Z,16.50
2023-02-18T00:11:47.181Z,15.88
2023-02-18T00:12:21.276Z,17.13
2023-02-18T00:12:56.639Z,16.08
2023-02-18T00:13:31.503Z,16.00
2023-02-18T00:14:09.560Z,16.20
2023-02-18T00:14:44.324Z,17.15
2023-02-18T00:15:19.057Z,15.50
2023-02-18T00:15:53.754Z,15.90
2023-02-18T00:16:30.025Z,15.82
2023-02-18T00:17:04.090Z,16.15
2023-02-18T00:17:39.213Z,15.98
2023-02-18T00:18:14.547Z,15.75
2023-02-18T00:18:49.253Z,16.52
2023-02-18T00:19:24.533Z,16.15
2023-02-18T00:19:58.967Z,15.60
2023-02-18T00:20:34.391Z,15.95
2023-02-18T00:21:09.541Z,14.43
2023-02-18T00:21:44.551Z,16.75
2023-02-18T00:22:20.613Z,17.23
2023-02-18T00:22:54.562Z,16.33
2023-02-18T00:23:29.400Z,15.88
2023-02-18T00:24:04.882Z,16.65
2023-02-18T00:24:39.334Z,15.80
2023-02-18T00:25:13.432Z,16.48
2023-02-18T00:25:49.625Z,15.75
2023-02-18T00:26:23.527Z,17.17
2023-02-18T00:26:58.129Z,16.17
2023-02-18T00:27:33.647Z,17.13
2023-02-18T00:28:09.329Z,15.82
2023-02-18T00:28:43.380Z,16.92
2023-02-18T00:29:18.657Z,16.40
2023-02-18T00:29:51.648Z,16.65
2023-02-18T00:30:26.400Z,17.10
2023-02-18T00:31:08.402Z,16.42
2023-02-18T00:31:42.478Z,17.30
2023-02-18T00:32:16.947Z,16.65
2023-02-18T00:32:51.726Z,17.33
2023-02-18T00:33:25.327Z,17.58
2023-02-18T00:33:59.589Z,15.73
2023-02-18T00:34:34.963Z,16.50
2023-02-18T00:35:11.191Z,17.58
2023-02-18T00:35:44.283Z,17.13
2023-02-18T00:36:20.546Z,17.00
2023-02-18T00:36:55.095Z,16.60
2023-02-18T00:37:28.813Z,16.15
2023-02-18T00:38:04.207Z,15.57
2023-02-18T00:38:36.992Z,17.23
2023-02-18T00:39:13.891Z,17.25
2023-02-18T00:39:48.690Z,17.15
2023-02-18T00:40:23.872Z,16.65
2023-02-18T00:41:00.569Z,16.40
2023-02-18T00:41:34.236Z,15.48
2023-02-18T00:42:07.366Z,16.65
2023-02-18T00:42:43.448Z,15.43
2023-02-18T00:43:16.797Z,16.50
2023-02-18T00:43:52.142Z,16.58
2023-02-18T00:44:27.325Z,16.58
2023-02-18T00:45:04.165Z,16.55
2023-02-18T00:45:38.363Z,16.23
2023-02-18T00:46:13.157Z,16.60
2023-02-18T00:46:48.858Z,16.48
2023-02-18T00:47:22.147Z,16.52
2023-02-18T00:47:56.145Z,16.83
2023-02-18T00:48:33.043Z,16.00
2023-02-18T00:49:08.464Z,15.40
2023-02-18T00:49:43.351Z,15.90
2023-02-18T00:50:16.924Z,15.85
2023-02-18T00:50:51.468Z,16.63
2023-02-18T00:51:26.644Z,16.98
2023-02-18T00:51:59.694Z,17.35
2023-02-18T00:52:34.346Z,15.90
2023-02-18T00:53:09.438Z,17.35
2023-02-18T00:53:43.269Z,15.25
2023-02-18T00:54:16.233Z,15.90
2023-02-18T00:54:50.521Z,17.05
2023-02-18T00:55:24.499Z,16.35
2023-02-18T00:56:00.026Z,15.70
2023-02-18T00:56:34.823Z,15.10
2023-02-18T00:57:09.573Z,15.52
2023-02-18T00:57:44.002Z,16.55
2023-02-18T00:58:19.194Z,17.23
2023-02-18T00:58:53.506Z,15.23
2023-02-18T00:59:26.520Z,15.77
2023-02-18T01:00:01.887Z,15.38
2023-02-18T01:00:38.077Z,15.07
2023-02-18T01:01:12.185Z,15.32
2023-02-18T01:01:50.150Z,14.57
2023-02-18T01:02:24.760Z,14.70
2023-02-18T01:02:59.520Z,14.20
2023-02-18T01:03:33.483Z,14.43
2023-02-18T01:04:07.279Z,15.95
2023-02-18T01:04:41.926Z,15.55
2023-02-18T01:05:16.645Z,16.02
2023-02-18T01:05:50.944Z,15.52
2023-02-18T01:06:26.430Z,15.00
2023-02-18T01:07:00.537Z,14.57
2023-02-18T01:07:35.314Z,15.68
2023-02-18T01:08:10.530Z,15.63
2023-02-18T01:08:44.939Z,16.60
2023-02-18T01:09:18.481Z,15.63
2023-02-18T01:09:53.780Z,16.13
2023-02-18T01:10:27.588Z,16.40
2023-02-18T01:11:03.145Z,15.93
2023-02-18T01:11:38.443Z,15.95
2023-02-18T01:12:12.883Z,16.10
2023-02-18T01:12:46.449Z,15.73
2023-02-18T01:13:21.042Z,15.98
2023-02-18T01:13:54.058Z,15.63
2023-02-18T01:14:30.204Z,15.82
2023-02-18T01:15:05.050Z,16.20
2023-02-18T01:15:38.649Z,16.17
2023-02-18T01:16:13.180Z,16.88
2023-02-18T01:16:46.775Z,15.52
2023-02-18T01:17:20.802Z,15.38
2023-02-18T01:17:55.000Z,15.93
2023-02-18T01:18:28.527Z,16.60
2023-02-18T01:19:02.218Z,16.65
2023-02-18T01:19:36.794Z,15.68
2023-02-18T01:20:10.609Z,16.02
2023-02-18T01:20:45.253Z,16.38
2023-02-18T01:21:20.840Z,16.52
2023-02-18T01:21:54.620Z,15.07
2023-02-18T01:22:29.470Z,16.35
2023-02-18T01:23:04.021Z,17.10
2023-02-18T01:23:37.826Z,15.88
2023-02-18T01:24:11.731Z,15.85
2023-02-18T01:24:46.627Z,15.02
2023-02-18T01:25:20.499Z,14.95
2023-02-18T01:25:54.275Z,16.60
2023-02-18T01:26:31.062Z,15.60
2023-02-18T01:27:05.095Z,16.73
2023-02-18T01:27:38.822Z,15.43
2023-02-18T01:28:13.622Z,16.67
2023-02-18T01:28:47.713Z,16.13
2023-02-18T01:29:22.328Z,15.20
2023-02-18T01:29:57.467Z,16.20
2023-02-18T01:30:30.770Z,16.70
2023-02-18T01:31:07.290Z,16.80
2023-02-18T01:31:41.980Z,16.25
2023-02-18T01:32:16.470Z,15.70
2023-02-18T01:32:50.727Z,16.45
2023-02-18T01:33:25.379Z,15.57
2023-02-18T01:34:00.373Z,16.30
2023-02-18T01:34:36.704Z,15.88
2023-02-18T01:35:13.748Z,15.50
2023-02-18T01:35:46.587Z,15.48
2023-02-18T01:36:20.963Z,16.15
2023-02-18T01:36:54.378Z,15.38
2023-02-18T01:37:27.740Z,14.98
2023-02-18T01:38:01.567Z,16.05
2023-02-18T01:38:36.132Z,16.15
2023-02-18T01:39:10.698Z,14.00
2023-02-18T01:39:46.676Z,15.55
2023-02-18T01:40:21.358Z,15.75
2023-02-18T01:40:55.048Z,16.15
2023-02-18T01:41:31.128Z,15.82
2023-02-18T01:42:04.340Z,13.93
2023-02-18T01:42:38.444Z,15.95
2023-02-18T01:43:11.674Z,15.00
2023-02-18T01:43:45.817Z,15.65
2023-02-18T01:44:20.172Z,15.77
2023-02-18T01:44:54.048Z,16.02
2023-02-18T01:45:45.919Z,15.45
2023-02-18T01:46:21.491Z,15.85
2023-02-18T01:46:56.070Z,15.57
2023-02-18T01:47:30.169Z,15.85
2023-02-18T01:48:08.019Z,15.88
2023-02-18T01:48:44.037Z,15.98
2023-02-18T01:49:20.814Z,15.73
2023-02-18T01:49:54.116Z,15.88
2023-02-18T01:50:29.040Z,17.13
2023-02-18T01:51:06.189Z,16.50
2023-02-18T01:51:41.901Z,16.40
2023-02-18T01:52:18.247Z,17.63
2023-02-18T01:52:51.378Z,18.35
2023-02-18T01:53:27.682Z,17.52
2023-02-18T01:54:06.683Z,17.92
2023-02-18T01:54:42.898Z,14.05
2023-02-18T01:55:16.598Z,18.40
2023-02-18T01:55:50.377Z,17.92
2023-02-18T01:56:27.164Z,19.42
2023-02-18T01:57:03.795Z,19.00
2023-02-18T01:57:40.750Z,19.83
2023-02-18T01:58:14.884Z,20.30
2023-02-18T01:58:49.471Z,20.75
2023-02-18T01:59:28.336Z,20.70
2023-02-18T02:00:05.158Z,19.75
2023-02-18T02:00:48.327Z,20.38
2023-02-18T02:01:23.592Z,21.23
2023-02-18T02:01:58.337Z,21.70
2023-02-18T02:02:33.568Z,19.50
2023-02-18T02:03:08.882Z,19.02
2023-02-18T02:03:42.514Z,19.23
2023-02-18T02:04:16.021Z,20.13
2023-02-18T02:04:50.420Z,20.17
2023-02-18T02:05:24.777Z,19.65
2023-02-18T02:05:58.916Z,19.63
2023-02-18T02:06:34.018Z,20.17
2023-02-18T02:07:07.950Z,20.00
2023-02-18T02:07:42.863Z,18.63
2023-02-18T02:08:15.934Z,18.88
2023-02-18T02:08:51.185Z,19.40
2023-02-18T02:09:25.858Z,18.60
2023-02-18T02:09:59.900Z,18.85
2023-02-18T02:10:41.608Z,17.83
2023-02-18T02:11:22.828Z,18.85
2023-02-18T02:12:12.037Z,17.60
2023-02-18T02:12:53.161Z,16.85
2023-02-18T02:13:31.026Z,16.63
2023-02-18T02:14:13.628Z,16.85
2023-02-18T02:14:58.609Z,17.60
2023-02-18T02:15:36.069Z,17.75
2023-02-18T02:16:14.577Z,17.08
2023-02-18T02:16:54.227Z,15.68
2023-02-18T02:17:34.037Z,16.98
2023-02-18T02:18:48.803Z,14.98
2023-02-18T02:19:46.599Z,15.13
2023-02-18T02:20:31.063Z,15.82
2023-02-18T02:21:18.975Z,15.98
2023-02-18T02:22:17.245Z,13.13
2023-02-18T02:23:17.823Z,15.25
2023-02-18T02:24:12.676Z,16.38
2023-02-18T02:25:02.234Z,14.88
2023-02-18T02:25:57.059Z,14.55
2023-02-18T02:26:52.009Z,14.90
2023-02-18T02:27:40.109Z,15.23
2023-02-18T02:28:45.321Z,15.48
2023-02-18T02:29:42.247Z,14.43
2023-02-18T02:30:48.885Z,13.75
2023-02-18T02:31:50.492Z,14.88
2023-02-18T02:32:47.775Z,15.05
2023-02-18T02:33:30.876Z,17.10
2023-02-18T02:34:30.682Z,15.60
2023-02-18T02:35:07.370Z,15.55
2023-02-18T02:35:43.390Z,15.98
2023-02-18T02:36:20.591Z,16.80
2023-02-18T02:36:57.088Z,15.70
2023-02-18T02:37:36.990Z,16.83
2023-02-18T02:38:14.533Z,15.32
2023-02-18T02:38:54.958Z,17.75
2023-02-18T02:39:32.457Z,16.48
2023-02-18T02:40:11.047Z,16.27
2023-02-18T02:40:48.449Z,16.48
2023-02-18T02:41:27.764Z,15.90
2023-02-18T02:42:05.020Z,16.75
2023-02-18T02:42:48.539Z,16.20
2023-02-18T02:43:29.854Z,17.17
2023-02-18T02:44:09.651Z,12.43
2023-02-18T02:44:48.490Z,17.25
2023-02-18T02:45:25.902Z,16.55
2023-02-18T02:46:01.979Z,17.75
2023-02-18T02:46:39.085Z,17.90
2023-02-18T02:47:15.449Z,17.55
2023-02-18T02:47:51.794Z,17.10
2023-02-18T02:48:31.529Z,18.20
2023-02-18T02:49:10.841Z,17.48
2023-02-18T02:49:51.244Z,17.20
2023-02-18T02:50:28.959Z,17.20
2023-02-18T02:51:06.168Z,16.77
2023-02-18T02:51:44.905Z,17.65
2023-02-18T02:52:22.036Z,17.48
2023-02-18T02:52:59.750Z,19.17
2023-02-18T02:53:36.464Z,18.30
2023-02-18T02:54:12.454Z,18.05
2023-02-18T02:54:46.898Z,17.33
2023-02-18T02:55:22.365Z,18.27
2023-02-18T02:55:57.690Z,18.98
2023-02-18T02:56:33.099Z,19.63
2023-02-18T02:57:11.620Z,18.52
2023-02-18T02:57:55.110Z,18.83
2023-02-18T02:58:33.833Z,19.40
2023-02-18T02:59:10.989Z,20.48
2023-02-18T02:59:51.294Z,20.08
2023-02-18T03:00:30.126Z,19.17
2023-02-18T03:01:11.024Z,19.13
2023-02-18T03:01:51.301Z,18.08
2023-02-18T03:02:31.394Z,18.10
2023-02-18T03:03:18.932Z,18.45
2023-02-18T03:04:10.301Z,19.27
2023-02-18T03:04:56.715Z,19.30
2023-02-18T03:05:35.645Z,18.15
2023-02-18T03:06:28.355Z,19.15
2023-02-18T03:07:13.496Z,17.30
2023-02-18T03:07:56.752Z,18.85
2023-02-18T03:08:38.501Z,19.20
2023-02-18T03:09:16.854Z,19.15
2023-02-18T03:09:58.492Z,20.40
2023-02-18T03:10:43.736Z,19.58
2023-02-18T03:11:19.996Z,20.10
2023-02-18T03:11:55.978Z,20.33
2023-02-18T03:12:38.668Z,18.48
2023-02-18T03:13:17.673Z,18.30
2023-02-18T03:13:59.569Z,18.90
2023-02-18T03:14:46.467Z,18.65
2023-02-18T03:15:23.748Z,19.17
2023-02-18T03:16:01.530Z,19.58
2023-02-18T03:16:37.762Z,19.85
2023-02-18T03:17:15.190Z,19.52
2023-02-18T03:17:54.017Z,18.85
2023-02-18T03:18:33.899Z,20.05
2023-02-18T03:19:46.421Z,18.48
2023-02-18T03:20:27.724Z,18.73
2023-02-18T03:21:06.540Z,19.40
2023-02-18T03:21:45.377Z,18.83
2023-02-18T03:22:22.761Z,17.88
2023-02-18T03:22:58.939Z,18.05
2023-02-18T03:23:36.862Z,20.02
2023-02-18T03:24:12.694Z,19.23
2023-02-18T03:24:48.208Z,20.23
2023-02-18T03:25:23.270Z,20.20
2023-02-18T03:25:59.520Z,19.83
2023-02-18T03:26:34.265Z,18.85
2023-02-18T03:27:11.579Z,19.70
2023-02-18T03:27:48.158Z,19.15
2023-02-18T03:28:22.521Z,19.50
2023-02-18T03:28:58.460Z,19.20
2023-02-18T03:29:33.441Z,18.92
2023-02-18T03:30:11.996Z,19.35
2023-02-18T03:30:48.071Z,18.00
2023-02-18T03:31:24.245Z,20.13
2023-02-18T03:32:00.578Z,18.48
2023-02-18T03:32:37.041Z,18.27
2023-02-18T03:33:12.294Z,19.40
2023-02-18T03:33:48.086Z,20.13
2023-02-18T03:34:26.155Z,17.98
2023-02-18T03:35:02.090Z,19.08
2023-02-18T03:35:40.378Z,19.05
2023-02-18T03:36:15.701Z,18.52
2023-02-18T03:36:51.817Z,18.08
2023-02-18T03:37:25.398Z,20.67
2023-02-18T03:38:03.900Z,18.63
2023-02-18T03:38:39.837Z,17.95
2023-02-18T03:39:16.312Z,19.17
2023-02-18T03:39:55.410Z,18.35
2023-02-18T03:40:29.678Z,18.77
2023-02-18T03:41:03.325Z,19.08
2023-02-18T03:41:38.744Z,18.02
2023-02-18T03:42:13.702Z,18.35
2023-02-18T03:42:48.256Z,17.80
2023-02-18T03:43:21.811Z,19.60
2023-02-18T03:44:01.151Z,18.35
2023-02-18T03:44:36.709Z,17.73
2023-02-18T03:45:10.267Z,18.30
2023-02-18T03:45:44.779Z,19.30
2023-02-18T03:46:19.539Z,18.02
2023-02-18T03:46:54.572Z,18.30
2023-02-18T03:47:28.859Z,18.00
2023-02-18T03:48:04.790Z,19.60
2023-02-18T03:48:38.638Z,20.23
2023-02-18T03:49:13.979Z,20.30
2023-02-18T03:49:48.553Z,18.98
2023-02-18T03:50:22.429Z,19.30
2023-02-18T03:50:58.559Z,19.95
2023-02-18T03:51:32.797Z,19.08
2023-02-18T03:52:06.938Z,18.92
2023-02-18T03:52:42.042Z,19.98
2023-02-18T03:53:17.903Z,20.08
2023-02-18T03:53:53.724Z,20.88
2023-02-18T03:54:27.378Z,19.67
2023-02-18T03:55:03.924Z,20.52
2023-02-18T03:55:38.013Z,19.50
2023-02-18T03:56:12.216Z,20.40
2023-02-18T03:56:47.208Z,20.73
2023-02-18T03:57:21.191Z,20.85
2023-02-18T03:57:55.352Z,19.75
2023-02-18T03:58:30.143Z,21.05
2023-02-18T03:59:04.526Z,20.02
2023-02-18T03:59:38.976Z,21.52
2023-02-18T04:00:15.138Z,19.90
2023-02-18T04:00:49.375Z,22.05
2023-02-18T04:01:24.756Z,21.10
2023-02-18T04:01:58.794Z,21.88
2023-02-18T04:02:33.296Z,21.27
2023-02-18T04:03:09.167Z,21.95
2023-02-18T04:03:43.275Z,20.85
2023-02-18T04:04:17.795Z,21.83
2023-02-18T04:04:53.777Z,22.27
2023-02-18T04:05:28.232Z,20.50
2023-02-18T04:06:03.853Z,20.23
2023-02-18T04:06:38.591Z,18.95
2023-02-18T04:07:12.738Z,19.98
2023-02-18T04:07:47.082Z,19.40
2023-02-18T04:08:22.780Z,20.15
2023-02-18T04:08:56.298Z,21.20
2023-02-18T04:09:29.918Z,20.40
2023-02-18T04:10:04.409Z,21.15
2023-02-18T04:10:37.475Z,21.35
2023-02-18T04:11:11.140Z,19.27
2023-02-18T04:11:46.638Z,21.42
2023-02-18T04:12:20.847Z,21.55
2023-02-18T04:12:55.230Z,22.00
2023-02-18T04:13:30.125Z,20.40
2023-02-18T04:14:03.877Z,20.65
2023-02-18T04:14:38.113Z,20.77
2023-02-18T04:15:14.683Z,20.63
2023-02-18T04:15:51.125Z,19.73
2023-02-18T04:16:25.794Z,19.25
2023-02-18T04:17:01.933Z,18.27
2023-02-18T04:17:36.808Z,19.23
2023-02-18T04:18:12.561Z,17.88
2023-02-18T04:18:46.926Z,18.40
2023-02-18T04:19:21.510Z,18.85
2023-02-18T04:19:55.450Z,18.38
2023-02-18T04:20:29.538Z,18.98
2023-02-18T04:21:06.211Z,18.80
2023-02-18T04:21:40.005Z,18.80
2023-02-18T04:22:14.268Z,19.48
2023-02-18T04:22:49.902Z,18.77
2023-02-18T04:23:23.674Z,18.55
2023-02-18T04:23:57.537Z,18.23
2023-02-18T04:24:32.284Z,19.30
2023-02-18T04:25:06.798Z,17.63
2023-02-18T04:25:40.588Z,18.20
2023-02-18T04:26:16.318Z,18.30
2023-02-18T04:26:50.792Z,16.52
2023-02-18T04:27:25.332Z,17.60
2023-02-18T04:28:00.222Z,18.27
2023-02-18T04:28:33.857Z,18.65
2023-02-18T04:29:07.778Z,18.17
2023-02-18T04:29:43.811Z,17.85
2023-02-18T04:30:19.016Z,17.88
2023-02-18T04:30:53.133Z,16.33
2023-02-18T04:31:28.494Z,17.15
2023-02-18T04:32:02.237Z,16.92
2023-02-18T04:32:36.374Z,16.95
2023-02-18T04:33:11.168Z,17.58
2023-02-18T04:33:45.464Z,17.85
2023-02-18T04:34:19.876Z,17.13
2023-02-18T04:34:55.602Z,17.00
2023-02-18T04:35:30.702Z,18.67
2023-02-18T04:36:06.505Z,17.58
2023-02-18T04:36:41.819Z,16.95
2023-02-18T04:37:18.140Z,16.75
2023-02-18T04:37:52.025Z,16.42
2023-02-18T04:38:26.993Z,17.02
2023-02-18T04:39:01.553Z,17.98
2023-02-18T04:39:37.081Z,16.70
2023-02-18T04:40:10.772Z,16.08
2023-02-18T04:40:45.571Z,16.65
2023-02-18T04:41:18.617Z,17.45
2023-02-18T04:41:53.403Z,15.38
2023-02-18T04:42:26.832Z,16.48
2023-02-18T04:43:00.869Z,16.38
2023-02-18T04:43:36.449Z,16.70
2023-02-18T04:44:11.808Z,16.45
2023-02-18T04:44:47.268Z,17.63
2023-02-18T04:45:22.469Z,17.40
2023-02-18T04:45:56.756Z,16.25
2023-02-18T04:46:30.738Z,17.75
2023-02-18T04:47:06.175Z,16.92
2023-02-18T04:47:39.653Z,16.88
2023-02-18T04:48:13.273Z,16.15
2023-02-18T04:48:47.928Z,15.90
2023-02-18T04:49:21.312Z,15.63
2023-02-18T04:49:56.026Z,14.40
2023-02-18T04:50:30.676Z,16.30
2023-02-18T04:51:08.378Z,15.50
2023-02-18T04:51:43.794Z,16.45
2023-02-18T04:52:17.371Z,16.02
2023-02-18T04:52:52.134Z,15.45
2023-02-18T04:53:27.487Z,16.13
2023-02-18T04:54:00.731Z,15.43
2023-02-18T04:54:34.340Z,15.70
2023-02-18T04:55:10.420Z,15.63
2023-02-18T04:55:44.519Z,14.82
2023-02-18T04:56:17.701Z,16.50
2023-02-18T04:56:52.557Z,15.27
2023-02-18T04:57:26.200Z,15.30
2023-02-18T04:58:00.862Z,14.82
2023-02-18T04:58:40.464Z,15.20
2023-02-18T04:59:17.006Z,14.75
2023-02-18T04:59:52.280Z,13.82
2023-02-18T05:00:25.728Z,14.32
2023-02-18T05:01:00.224Z,15.88
2023-02-18T05:01:35.052Z,16.08
2023-02-18T05:02:08.221Z,14.55
2023-02-18T05:02:42.219Z,15.68
2023-02-18T05:03:16.932Z,15.93
2023-02-18T05:03:50.572Z,17.25
2023-02-18T05:04:23.813Z,15.98
2023-02-18T05:04:58.444Z,14.18
2023-02-18T05:05:32.085Z,16.45
2023-02-18T05:06:09.053Z,16.00
2023-02-18T05:06:44.653Z,16.10
2023-02-18T05:07:19.194Z,14.70
2023-02-18T05:07:53.671Z,15.30
2023-02-18T05:08:29.228Z,15.32
2023-02-18T05:09:03.560Z,16.17
2023-02-18T05:09:38.317Z,15.82
2023-02-18T05:10:17.136Z,15.85
2023-02-18T05:10:50.176Z,15.15
2023-02-18T05:11:23.562Z,15.65
2023-02-18T05:11:58.717Z,14.88
2023-02-18T05:12:33.344Z,14.13
2023-02-18T05:13:07.934Z,14.57
2023-02-18T05:13:43.000Z,15.90
2023-02-18T05:14:16.732Z,14.88
2023-02-18T05:14:51.100Z,15.13
2023-02-18T05:15:25.776Z,15.45
2023-02-18T05:16:00.952Z,15.18
2023-02-18T05:16:34.222Z,15.85
2023-02-18T05:17:10.295Z,14.90
2023-02-18T05:17:43.968Z,14.23
2023-02-18T05:18:17.144Z,14.68
2023-02-18T05:18:52.237Z,14.13
2023-02-18T05:19:26.245Z,14.90
2023-02-18T05:20:00.263Z,15.13
2023-02-18T05:20:36.054Z,15.98
2023-02-18T05:21:12.316Z,15.50
2023-02-18T05:21:45.393Z,16.40
2023-02-18T05:22:21.286Z,16.88
2023-02-18T05:22:55.847Z,20.17
2023-02-18T05:23:30.678Z,15.93
2023-02-18T05:24:06.019Z,15.25
2023-02-18T05:24:41.057Z,14.77
2023-02-18T05:25:15.453Z,15.38
2023-02-18T05:25:51.324Z,14.77
2023-02-18T05:26:26.571Z,15.13
2023-02-18T05:27:01.370Z,14.65
2023-02-18T05:27:38.312Z,14.48
2023-02-18T05:28:13.393Z,14.20
2023-02-18T05:28:47.540Z,14.45
2023-02-18T05:29:24.558Z,14.85
2023-02-18T05:29:58.757Z,16.15
2023-02-18T05:30:33.882Z,15.80
2023-02-18T05:31:08.626Z,16.05
2023-02-18T05:31:44.022Z,14.45
2023-02-18T05:32:17.631Z,15.70
2023-02-18T05:32:53.085Z,16.17
2023-02-18T05:33:26.197Z,16.05
2023-02-18T05:34:01.071Z,16.38
2023-02-18T05:34:35.894Z,16.67
2023-02-18T05:35:09.848Z,16.35
2023-02-18T05:35:42.982Z,16.15
2023-02-18T05:36:18.944Z,16.25
2023-02-18T05:36:53.925Z,16.08
2023-02-18T05:37:27.761Z,17.55
2023-02-18T05:38:02.572Z,16.98
2023-02-18T05:38:37.827Z,17.20
2023-02-18T05:39:12.068Z,16.90
2023-02-18T05:39:46.337Z,17.13
2023-02-18T05:40:21.454Z,16.85
2023-02-18T05:40:55.947Z,16.33
2023-02-18T05:41:30.109Z,18.40
2023-02-18T05:42:04.758Z,17.63
2023-02-18T05:42:39.227Z,16.70
2023-02-18T05:43:13.045Z,15.70
2023-02-18T05:44:17.007Z,15.48
2023-02-18T05:44:51.764Z,15.73
2023-02-18T05:45:25.289Z,14.32
2023-02-18T05:45:58.262Z,16.38
2023-02-18T05:46:32.588Z,15.85
2023-02-18T05:47:11.269Z,15.63
2023-02-18T05:47:45.210Z,16.65
2023-02-18T05:48:18.873Z,16.52
2023-02-18T05:48:53.512Z,15.48
2023-02-18T05:49:27.599Z,16.95
2023-02-18T05:50:01.199Z,15.90
2023-02-18T05:50:35.409Z,16.00
2023-02-18T05:51:09.837Z,16.77
2023-02-18T05:51:45.089Z,16.67
2023-02-18T05:52:19.797Z,16.50
2023-02-18T05:52:53.788Z,16.70
2023-02-18T05:53:28.769Z,15.93
2023-02-18T05:54:03.010Z,16.00
2023-02-18T05:54:37.353Z,16.02
2023-02-18T05:55:12.451Z,16.00
2023-02-18T05:55:45.907Z,16.60
2023-02-18T05:56:20.677Z,16.73
2023-02-18T05:56:55.387Z,16.75
2023-02-18T05:57:30.057Z,18.13
2023-02-18T05:58:04.182Z,16.27
2023-02-18T05:58:39.653Z,15.70
2023-02-18T05:59:13.245Z,16.65
2023-02-18T05:59:48.734Z,17.27
2023-02-18T06:00:22.621Z,17.02
2023-02-18T06:00:56.791Z,17.10
2023-02-18T06:01:33.532Z,16.17
2023-02-18T06:02:06.900Z,16.20
2023-02-18T06:02:41.770Z,15.15
2023-02-18T06:03:16.754Z,13.60
2023-02-18T06:03:52.238Z,15.32
2023-02-18T06:04:26.934Z,14.85
2023-02-18T06:05:01.024Z,14.10
2023-02-18T06:05:35.099Z,14.93
2023-02-18T06:06:10.193Z,14.85
2023-02-18T06:06:47.222Z,13.95
2023-02-18T06:07:21.299Z,13.82
2023-02-18T06:07:56.854Z,15.00
2023-02-18T06:08:31.357Z,13.52
2023-02-18T06:09:05.831Z,14.30
2023-02-18T06:09:40.292Z,13.98
2023-02-18T06:10:14.563Z,15.18
2023-02-18T06:10:48.589Z,14.55
2023-02-18T06:11:23.425Z,13.30
2023-02-18T06:11:57.104Z,13.65
2023-02-18T06:12:32.483Z,13.07
2023-02-18T06:13:05.537Z,13.30
2023-02-18T06:13:39.879Z,11.93
2023-02-18T06:14:14.129Z,13.70
2023-02-18T06:14:47.765Z,13.07
2023-02-18T06:15:21.979Z,11.70
2023-02-18T06:15:57.117Z,12.77
2023-02-18T06:16:31.729Z,12.30
2023-02-18T06:17:06.232Z,14.02
2023-02-18T06:17:41.850Z,13.27
2023-02-18T06:18:14.913Z,13.07
2023-02-18T06:18:48.571Z,13.82
2023-02-18T06:19:24.965Z,12.52
2023-02-18T06:19:59.019Z,13.60
2023-02-18T06:20:33.141Z,12.70
2023-02-18T06:21:08.406Z,13.20
2023-02-18T06:21:43.092Z,13.02
2023-02-18T06:22:19.778Z,12.60
2023-02-18T06:22:53.926Z,12.60
2023-02-18T06:23:28.054Z,12.65
2023-02-18T06:24:02.886Z,11.40
2023-02-18T06:24:37.164Z,11.45
2023-02-18T06:25:12.507Z,13.68
2023-02-18T06:25:47.033Z,12.80
2023-02-18T06:26:20.840Z,11.70
2023-02-18T06:26:56.222Z,13.07
2023-02-18T06:27:30.345Z,11.98
2023-02-18T06:28:03.961Z,11.00
2023-02-18T06:28:39.091Z,11.52
2023-02-18T06:29:12.652Z,11.30
2023-02-18T06:29:46.461Z,11.57
2023-02-18T06:30:24.355Z,10.95
2023-02-18T06:31:02.961Z,11.00
2023-02-18T06:32:01.243Z,10.82
2023-02-18T06:32:35.966Z,10.23
2023-02-18T06:33:10.125Z,10.80
2023-02-18T06:33:47.023Z,10.48
2023-02-18T06:34:20.825Z,10.52
2023-02-18T06:34:55.575Z,10.75
2023-02-18T06:35:31.756Z,10.40
2023-02-18T06:36:08.542Z,10.77
2023-02-18T06:36:45.057Z,9.68
2023-02-18T06:37:21.217Z,10.07
2023-02-18T06:37:55.249Z,9.95
2023-02-18T06:38:31.773Z,10.13
2023-02-18T06:39:08.667Z,10.40
2023-02-18T06:39:42.729Z,10.00
2023-02-18T06:41:10.934Z,9.35
2023-02-18T06:41:46.931Z,9.02
2023-02-18T06:42:21.806Z,8.85
2023-02-18T06:43:21.804Z,9.65
2023-02-18T06:43:55.445Z,8.80
2023-02-18T06:44:29.378Z,9.25
2023-02-18T06:45:06.816Z,8.75
2023-02-18T06:45:40.019Z,8.80
2023-02-18T06:46:28.281Z,9.43
2023-02-18T06:47:05.368Z,8.27
2023-02-18T06:47:39.394Z,8.82
2023-02-18T06:48:13.942Z,7.85
2023-02-18T06:48:49.321Z,8.52
2023-02-18T06:49:22.909Z,8.00
2023-02-18T06:49:57.121Z,8.70
2023-02-18T06:50:32.174Z,9.15
2023-02-18T06:51:07.436Z,8.50
2023-02-18T06:51:46.914Z,7.82
2023-02-18T06:52:31.253Z,6.78
2023-02-18T06:53:05.157Z,7.93
2023-02-18T06:53:40.661Z,7.93
2023-02-18T06:54:14.924Z,6.97
2023-02-18T06:54:47.866Z,8.13
2023-02-18T06:55:23.193Z,8.00
2023-02-18T06:55:57.427Z,8.27
2023-02-18T06:56:31.324Z,8.13
2023-02-18T06:57:06.803Z,7.57
2023-02-18T06:57:47.268Z,8.10
2023-02-18T06:58:24.032Z,7.80
2023-02-18T06:58:59.964Z,8.15
2023-02-18T06:59:37.219Z,7.53
2023-02-18T07:00:10.726Z,7.63
2023-02-18T07:00:49.802Z,7.95
2023-02-18T07:01:58.455Z,6.88
2023-02-18T07:02:33.267Z,7.57
2023-02-18T07:03:09.002Z,7.68
2023-02-18T07:03:45.032Z,6.55
2023-02-18T07:04:19.747Z,7.13
2023-02-18T07:04:54.017Z,7.25
2023-02-18T07:05:28.791Z,7.05
2023-02-18T07:06:03.987Z,7.95
2023-02-18T07:06:38.225Z,7.28
2023-02-18T07:07:13.910Z,7.25
2023-02-18T07:07:50.066Z,7.63
2023-02-18T07:08:24.889Z,7.05
2023-02-18T07:09:00.673Z,7.20
2023-02-18T07:09:35.231Z,7.43
2023-02-18T07:10:10.291Z,6.63
2023-02-18T07:10:45.200Z,8.02
2023-02-18T07:11:18.772Z,6.95
2023-02-18T07:11:52.674Z,6.95
2023-02-18T07:12:28.005Z,6.30
2023-02-18T07:13:02.032Z,7.00
2023-02-18T07:13:36.261Z,7.30
2023-02-18T07:14:11.606Z,6.80
2023-02-18T07:14:46.510Z,7.45
2023-02-18T07:15:24.863Z,6.82
2023-02-18T07:16:00.921Z,6.60
2023-02-18T07:16:35.625Z,7.10
2023-02-18T07:17:10.030Z,7.32
2023-02-18T07:17:45.535Z,7.60
2023-02-18T07:18:19.060Z,7.28
2023-02-18T07:18:54.006Z,6.72
2023-02-18T07:19:28.587Z,6.53
2023-02-18T07:20:02.539Z,7.80
2023-02-18T07:20:37.602Z,6.00
2023-02-18T07:21:12.832Z,6.65
2023-02-18T07:21:48.089Z,6.88
2023-02-18T07:22:21.206Z,6.68
2023-02-18T07:22:57.140Z,6.70
2023-02-18T07:23:31.529Z,6.97
2023-02-18T07:24:07.240Z,6.00
2023-02-18T07:24:43.382Z,5.63
2023-02-18T07:25:18.441Z,7.07
2023-02-18T07:25:54.333Z,7.28
2023-02-18T07:26:29.780Z,6.00
2023-02-18T07:27:03.435Z,6.65
2023-02-18T07:27:38.861Z,7.35
2023-02-18T07:28:12.515Z,6.82
2023-02-18T07:28:48.720Z,6.53
2023-02-18T07:29:23.226Z,6.78
2023-02-18T07:29:59.565Z,5.85
2023-02-18T07:30:33.279Z,6.15
2023-02-18T07:31:09.056Z,6.65
2023-02-18T07:31:42.384Z,6.50
2023-02-18T07:32:16.586Z,6.75
2023-02-18T07:32:51.456Z,6.30
2023-02-18T07:33:25.700Z,6.72
2023-02-18T07:34:00.330Z,5.38
2023-02-18T07:34:35.786Z,5.97
2023-02-18T07:35:12.255Z,6.20
2023-02-18T07:35:48.043Z,7.18
2023-02-18T07:36:22.229Z,6.10
2023-02-18T07:36:55.539Z,6.85
2023-02-18T07:37:29.779Z,6.53
2023-02-18T07:38:05.486Z,6.68
2023-02-18T07:38:41.939Z,5.40
2023-02-18T07:39:21.400Z,6.15
2023-02-18T07:39:55.420Z,5.40
2023-02-18T07:40:32.170Z,5.68
2023-02-18T07:41:06.323Z,6.80
2023-02-18T07:41:55.311Z,6.40
2023-02-18T07:42:30.653Z,5.88
2023-02-18T07:43:03.654Z,6.45
2023-02-18T07:43:39.827Z,6.30
2023-02-18T07:44:14.011Z,5.85
2023-02-18T07:44:52.517Z,6.15
2023-02-18T07:45:27.967Z,6.57
2023-02-18T07:46:07.389Z,6.35
2023-02-18T07:46:42.434Z,5.40
2023-02-18T07:47:19.871Z,5.70
2023-02-18T07:47:53.357Z,5.72
2023-02-18T07:48:26.550Z,5.47
2023-02-18T07:49:30.923Z,5.85